createdAt,value
2019-02-21T00:03:59.891Z,101777.70
2019-02-21T00:09:05.121Z,101779.75
2019-02-21T00:14:09.338Z,101770.84
2019-02-21T00:19:13.393Z,101769.45
2019-02-21T00:24:17.440Z,101773.25
2019-02-21T00:29:21.478Z,101769.83
2019-02-21T00:34:25.543Z,101765.69
2019-02-21T00:39:29.553Z,101766.52
2019-02-21T00:44:33.579Z,101761.83
2019-02-21T00:49:37.602Z,101762.69
2019-02-21T00:54:41.629Z,101761.19
2019-02-21T00:59:45.672Z,101761.91
2019-02-21T01:04:49.754Z,101760.06
2019-02-21T01:09:53.855Z,101762.08
2019-02-21T01:14:57.869Z,101756.75
2019-02-21T01:20:01.900Z,101756.93
2019-02-21T01:25:06.543Z,101755.60
2019-02-21T01:30:10.795Z,101741.59
2019-02-21T01:35:14.802Z,101748.77
2019-02-21T01:40:18.850Z,101748.60
2019-02-21T01:45:22.911Z,101747.97
2019-02-21T01:50:26.944Z,101746.67
2019-02-21T01:55:30.955Z,101731.91
2019-02-21T02:00:35.049Z,101734.73
2019-02-21T02:05:39.049Z,101740.41
2019-02-21T02:10:43.111Z,101738.77
2019-02-21T02:15:47.138Z,101729.89
2019-02-21T02:20:51.169Z,101741.42
2019-02-21T02:25:55.193Z,101737.39
2019-02-21T02:30:59.221Z,101734.73
2019-02-21T02:36:03.237Z,101725.23
2019-02-21T02:41:07.274Z,101717.33
2019-02-21T02:46:11.289Z,101712.46
2019-02-21T02:51:15.343Z,101715.38
2019-02-21T02:56:19.355Z,101715.89
2019-02-21T03:01:34.363Z,101713.79
2019-02-21T03:06:29.129Z,101722.02
2019-02-21T03:11:33.154Z,101722.67
2019-02-21T03:16:37.185Z,101724.98
2019-02-21T03:21:42.133Z,101722.39
2019-02-21T03:26:46.167Z,101727.03
2019-02-21T03:31:54.925Z,101730.83
2019-02-21T03:36:55.982Z,101730.00
2019-02-21T03:42:00.012Z,101731.27
2019-02-21T03:47:04.050Z,101736.41
2019-02-21T03:52:08.077Z,101743.28
2019-02-21T03:57:12.166Z,101737.91
2019-02-21T04:02:16.283Z,101730.86
2019-02-21T04:07:21.816Z,101736.52
2019-02-21T04:12:26.279Z,101732.42
2019-02-21T04:17:30.317Z,101726.53
2019-02-21T04:22:34.329Z,101730.34
2019-02-21T04:27:38.349Z,101736.22
2019-02-21T04:32:42.380Z,101736.22
2019-02-21T04:37:46.426Z,101729.98
2019-02-21T04:42:50.551Z,101739.23
2019-02-21T04:47:54.591Z,101734.09
2019-02-21T04:52:58.674Z,101736.48
2019-02-21T04:58:02.691Z,101736.95
2019-02-21T05:03:06.717Z,101736.93
2019-02-21T05:08:10.748Z,101736.48
2019-02-21T05:13:14.778Z,101734.44
2019-02-21T05:18:18.800Z,101740.34
2019-02-21T05:23:22.823Z,101731.52
2019-02-21T05:28:30.988Z,101727.73
2019-02-21T05:33:57.022Z,101733.97
2019-02-21T05:39:10.492Z,101734.77
2019-02-21T05:44:45.468Z,101736.62
2019-02-21T05:50:08.275Z,101729.17
2019-02-21T05:55:24.043Z,101723.04
2019-02-21T06:00:39.039Z,101714.70
2019-02-21T06:06:05.109Z,101718.98
2019-02-21T06:11:30.870Z,101721.53
2019-02-21T06:16:56.055Z,101721.43
2019-02-21T06:22:28.086Z,101720.12
2019-02-21T06:27:39.025Z,101718.16
2019-02-21T06:32:43.048Z,101723.46
2019-02-21T06:37:47.079Z,101720.29
2019-02-21T06:42:51.113Z,101720.98
2019-02-21T06:47:55.115Z,101716.75
2019-02-21T06:52:59.410Z,101709.79
2019-02-21T06:58:03.449Z,101717.73
2019-02-21T07:03:15.513Z,101708.50
2019-02-21T07:08:13.246Z,101713.45
2019-02-21T07:13:26.156Z,101709.91
2019-02-21T07:18:23.068Z,101713.78
2019-02-21T07:23:27.752Z,101706.09
2019-02-21T07:28:31.805Z,101719.63
2019-02-21T07:33:35.859Z,101720.53
2019-02-21T07:38:39.882Z,101727.78
2019-02-21T07:43:43.933Z,101728.27
2019-02-21T07:48:47.959Z,101735.23
2019-02-21T07:53:52.008Z,101745.95
2019-02-21T07:58:57.685Z,101746.83
2019-02-21T08:04:01.731Z,101757.82
2019-02-21T08:09:07.050Z,101756.73
2019-02-21T08:14:11.079Z,101761.15
2019-02-21T08:19:15.130Z,101765.05
2019-02-21T08:24:19.150Z,101775.38
2019-02-21T08:29:23.212Z,101774.48
2019-02-21T08:34:32.050Z,101779.58
2019-02-21T08:39:36.080Z,101773.27
2019-02-21T08:44:40.129Z,101772.72
2019-02-21T08:49:44.136Z,101774.36
2019-02-21T08:54:48.166Z,101767.87
2019-02-21T08:59:52.178Z,101764.22
2019-02-21T09:04:56.249Z,101769.44
2019-02-21T09:10:00.386Z,101760.38
2019-02-21T09:15:04.981Z,101754.77
2019-02-21T09:20:09.834Z,101754.77
2019-02-21T09:25:13.901Z,101763.73
2019-02-21T09:30:18.727Z,101761.71
2019-02-21T09:35:22.737Z,101759.81
2019-02-21T09:40:28.502Z,101766.11
2019-02-21T09:45:33.199Z,101749.56
2019-02-21T09:50:37.355Z,101755.26
2019-02-21T09:55:41.401Z,101751.91
2019-02-21T10:00:45.444Z,101750.95
2019-02-21T10:05:49.953Z,101753.50
2019-02-21T10:10:54.168Z,101761.67
2019-02-21T10:15:58.290Z,101764.19
2019-02-21T10:21:02.627Z,101747.30
2019-02-21T10:26:06.753Z,101737.77
2019-02-21T10:31:10.762Z,101731.05
2019-02-21T10:36:14.791Z,101722.64
2019-02-21T10:41:18.959Z,101720.66
2019-02-21T10:46:23.098Z,101719.27
2019-02-21T10:51:27.138Z,101704.43
2019-02-21T10:56:31.171Z,101689.88
2019-02-21T11:01:35.195Z,101691.58
2019-02-21T11:06:39.235Z,101684.05
2019-02-21T11:11:43.288Z,101683.78
2019-02-21T11:16:47.330Z,101670.18
2019-02-21T11:21:51.392Z,101655.30
2019-02-21T11:26:55.571Z,101656.87
2019-02-21T11:31:59.601Z,101657.96
2019-02-21T11:37:06.880Z,101652.31
2019-02-21T11:42:10.996Z,101645.12
2019-02-21T11:47:15.051Z,101635.71
2019-02-21T11:52:19.095Z,101624.28
2019-02-21T11:57:23.423Z,101630.34
2019-02-21T12:02:27.456Z,101623.11
2019-02-21T12:07:31.549Z,101621.70
2019-02-21T12:12:42.671Z,101643.33
2019-02-21T12:17:46.790Z,101642.32
2019-02-21T12:22:50.887Z,101639.30
2019-02-21T12:27:55.039Z,101638.53
2019-02-21T12:32:59.129Z,101647.78
2019-02-21T12:38:03.187Z,101650.37
2019-02-21T12:43:07.398Z,101640.52
2019-02-21T12:48:14.018Z,101657.67
2019-02-21T12:53:17.779Z,101648.75
2019-02-21T12:58:21.804Z,101650.58
2019-02-21T13:03:25.960Z,101658.70
2019-02-21T13:08:29.989Z,101657.27
2019-02-21T13:13:34.063Z,101658.33
2019-02-21T13:18:38.304Z,101655.70
2019-02-21T13:23:43.024Z,101638.77
2019-02-21T13:28:47.233Z,101643.68
2019-02-21T13:33:51.274Z,101630.81
2019-02-21T13:38:55.313Z,101612.88
2019-02-21T13:43:59.331Z,101616.98
2019-02-21T13:49:03.361Z,101620.07
2019-02-21T13:54:07.406Z,101613.21
2019-02-21T13:59:11.447Z,101621.77
2019-02-21T14:04:15.505Z,101632.47
2019-02-21T14:09:19.633Z,101644.31
2019-02-21T14:14:23.676Z,101637.45
2019-02-21T14:19:27.740Z,101644.70
2019-02-21T14:24:36.804Z,101650.16
2019-02-21T14:29:39.542Z,101650.87
2019-02-21T14:34:43.287Z,101667.07
2019-02-21T14:39:48.299Z,101665.83
2019-02-21T14:44:52.381Z,101666.38
2019-02-21T14:49:56.370Z,101668.78
2019-02-21T14:55:00.512Z,101668.23
2019-02-21T15:00:05.620Z,101665.84
2019-02-21T15:05:10.189Z,101656.87
2019-02-21T15:10:15.648Z,101654.70
2019-02-21T15:15:21.955Z,101655.94
2019-02-21T15:20:36.268Z,101656.16
2019-02-21T15:25:31.626Z,101647.98
2019-02-21T15:30:35.671Z,101640.84
2019-02-21T15:35:39.735Z,101645.95
2019-02-21T15:40:43.745Z,101652.58
2019-02-21T15:45:47.830Z,101655.56
2019-02-21T15:50:51.857Z,101662.84
2019-02-21T15:55:55.897Z,101660.43
2019-02-21T16:00:59.929Z,101654.47
2019-02-21T16:06:04.182Z,101656.16
2019-02-21T16:11:08.227Z,101646.34
2019-02-21T16:16:12.625Z,101648.95
2019-02-21T16:21:16.797Z,101646.93
2019-02-21T16:26:20.860Z,101650.61
2019-02-21T16:31:24.914Z,101648.62
2019-02-21T16:36:28.963Z,101644.34
2019-02-21T16:41:36.385Z,101646.87
2019-02-21T16:46:38.932Z,101652.23
2019-02-21T16:51:43.004Z,101651.00
2019-02-21T16:56:47.160Z,101654.10
2019-02-21T17:01:51.248Z,101662.67
2019-02-21T17:06:55.353Z,101657.25
2019-02-21T17:11:59.398Z,101656.51
2019-02-21T17:17:03.422Z,101663.94
2019-02-21T17:22:07.475Z,101664.95
2019-02-21T17:27:11.728Z,101675.83
2019-02-21T17:32:15.791Z,101673.70
2019-02-21T17:37:24.898Z,101682.87
2019-02-21T17:42:25.810Z,101681.11
2019-02-21T17:47:32.599Z,101675.16
2019-02-21T17:52:35.805Z,101682.99
2019-02-21T17:57:39.896Z,101686.48
2019-02-21T18:02:43.933Z,101694.73
2019-02-21T18:07:48.218Z,101701.91
2019-02-21T18:12:52.398Z,101703.45
2019-02-21T18:17:56.503Z,101706.72
2019-02-21T18:23:00.575Z,101714.46
2019-02-21T18:28:04.569Z,101714.55
2019-02-21T18:33:08.606Z,101713.59
2019-02-21T18:38:12.650Z,101718.95
2019-02-21T18:43:16.735Z,101720.66
2019-02-21T18:48:20.758Z,101707.44
2019-02-21T18:53:24.793Z,101718.49
2019-02-21T18:58:28.831Z,101719.13
2019-02-21T19:03:32.917Z,101709.17
2019-02-21T19:08:37.109Z,101713.09
2019-02-21T19:13:41.096Z,101708.41
2019-02-21T19:18:45.152Z,101710.70
2019-02-21T19:23:49.264Z,101711.98
2019-02-21T19:28:53.446Z,101715.41
2019-02-21T19:33:57.544Z,101710.30
2019-02-21T19:39:01.578Z,101708.50
2019-02-21T19:44:08.829Z,101712.15
2019-02-21T19:49:11.742Z,101707.33
2019-02-21T19:54:15.821Z,101711.52
2019-02-21T19:59:19.926Z,101703.77
2019-02-21T20:04:24.066Z,101707.27
2019-02-21T20:09:28.306Z,101678.63
2019-02-21T20:14:32.517Z,101709.82
2019-02-21T20:19:36.598Z,101716.30
2019-02-21T20:24:40.774Z,101717.16
2019-02-21T20:29:44.831Z,101722.05
2019-02-21T20:34:48.941Z,101716.42
2019-02-21T20:39:55.026Z,101717.67
2019-02-21T20:44:58.796Z,101720.91
2019-02-21T20:50:02.870Z,101720.57
2019-02-21T20:55:06.947Z,101712.30
2019-02-21T21:00:12.125Z,101716.19
2019-02-21T21:05:16.219Z,101696.11
2019-02-21T21:10:20.391Z,101719.56
2019-02-21T21:15:24.461Z,101734.92
2019-02-21T21:20:28.688Z,101734.80
2019-02-21T21:25:32.754Z,101749.56
2019-02-21T21:30:36.808Z,101753.75
2019-02-21T21:35:40.850Z,101750.26
2019-02-21T21:40:44.905Z,101751.22
2019-02-21T21:45:48.930Z,101770.88
2019-02-21T21:50:53.043Z,101765.34
2019-02-21T21:55:57.072Z,101772.98
2019-02-21T22:01:01.090Z,101776.61
2019-02-21T22:06:05.205Z,101780.49
2019-02-21T22:11:09.238Z,101780.80
2019-02-21T22:16:13.268Z,101783.80
2019-02-21T22:21:17.504Z,101791.62
2019-02-21T22:26:22.176Z,101792.13
2019-02-21T22:31:26.283Z,101799.22
2019-02-21T22:36:30.318Z,101795.63
2019-02-21T22:41:34.401Z,101803.11
2019-02-21T22:46:38.373Z,101812.41
2019-02-21T22:51:42.477Z,101809.05
2019-02-21T22:56:46.588Z,101816.69
2019-02-21T23:01:50.610Z,101818.02
2019-02-21T23:07:01.921Z,101817.66
2019-02-21T23:12:06.021Z,101823.54
2019-02-21T23:17:10.043Z,101824.69
2019-02-21T23:22:14.043Z,101837.55
2019-02-21T23:27:18.045Z,101848.86
2019-02-21T23:32:22.034Z,101850.53
2019-02-21T23:37:26.069Z,101852.31
2019-02-21T23:42:30.114Z,101862.17
2019-02-21T23:47:34.130Z,101846.34
2019-02-21T23:52:38.151Z,101857.35
2019-02-21T23:57:42.177Z,101864.36
